createdAt,value
2019-01-25T00:02:17.393Z,6.80
2019-01-25T00:04:44.036Z,7.43
2019-01-25T00:07:10.713Z,8.47
2019-01-25T00:09:37.414Z,7.33
2019-01-25T00:12:04.014Z,6.00
2019-01-25T00:14:30.634Z,7.37
2019-01-25T00:16:57.197Z,6.87
2019-01-25T00:19:23.809Z,8.73
2019-01-25T00:21:50.380Z,8.17
2019-01-25T00:24:16.979Z,6.93
2019-01-25T00:26:43.570Z,8.57
2019-01-25T00:29:10.169Z,8.47
2019-01-25T00:31:36.770Z,7.13
2019-01-25T00:34:03.518Z,7.13
2019-01-25T00:36:30.244Z,6.77
2019-01-25T00:38:56.886Z,6.70
2019-01-25T00:41:23.554Z,7.40
2019-01-25T00:43:50.435Z,6.73
2019-01-25T00:46:17.075Z,6.83
2019-01-25T00:48:43.974Z,6.17
2019-01-25T00:51:10.988Z,6.67
2019-01-25T00:53:37.702Z,6.00
2019-01-25T00:56:04.728Z,6.43
2019-01-25T00:58:31.313Z,6.97
2019-01-25T01:00:57.877Z,6.50
2019-01-25T01:03:24.499Z,6.23
2019-01-25T01:05:51.175Z,6.87
2019-01-25T01:08:17.881Z,6.30
2019-01-25T01:10:44.529Z,6.87
2019-01-25T01:13:11.101Z,5.37
2019-01-25T01:15:37.667Z,6.87
2019-01-25T01:18:04.307Z,6.43
2019-01-25T01:20:30.915Z,5.90
2019-01-25T01:22:57.559Z,7.20
2019-01-25T01:25:24.118Z,6.20
2019-01-25T01:27:50.713Z,6.70
2019-01-25T01:30:20.195Z,5.07
2019-01-25T01:32:46.811Z,6.27
2019-01-25T01:35:13.375Z,6.67
2019-01-25T01:37:40.053Z,5.83
2019-01-25T01:40:12.066Z,6.47
2019-01-25T01:42:38.744Z,6.37
2019-01-25T01:45:06.226Z,5.07
2019-01-25T01:47:32.915Z,7.03
2019-01-25T01:49:59.498Z,6.33
2019-01-25T01:52:26.218Z,4.83
2019-01-25T01:54:52.826Z,6.87
2019-01-25T01:57:19.400Z,6.53
2019-01-25T01:59:45.996Z,5.27
2019-01-25T02:02:12.682Z,6.07
2019-01-25T02:04:39.282Z,6.10
2019-01-25T02:07:05.895Z,6.43
2019-01-25T02:09:33.572Z,6.40
2019-01-25T02:12:00.248Z,6.37
2019-01-25T02:14:26.948Z,6.13
2019-01-25T02:16:53.589Z,6.20
2019-01-25T02:19:20.247Z,5.47
2019-01-25T02:21:47.144Z,6.53
2019-01-25T02:24:16.841Z,6.20
2019-01-25T02:26:43.502Z,5.67
2019-01-25T02:29:10.054Z,5.77
2019-01-25T02:31:36.684Z,5.60
2019-01-25T02:34:03.425Z,6.13
2019-01-25T02:36:30.002Z,6.70
2019-01-25T02:38:56.676Z,5.97
2019-01-25T02:41:23.351Z,5.70
2019-01-25T02:43:49.925Z,6.33
2019-01-25T02:46:16.518Z,5.93
2019-01-25T02:48:43.230Z,6.23
2019-01-25T02:51:09.810Z,4.87
2019-01-25T02:53:36.453Z,5.37
2019-01-25T02:56:03.394Z,5.33
2019-01-25T02:58:30.100Z,4.43
2019-01-25T03:00:56.777Z,5.53
2019-01-25T03:03:27.482Z,4.67
2019-01-25T03:05:54.060Z,4.20
2019-01-25T03:08:20.665Z,5.97
2019-01-25T03:10:47.476Z,5.07
2019-01-25T03:13:14.222Z,4.53
2019-01-25T03:15:40.816Z,5.53
2019-01-25T03:18:07.807Z,5.80
2019-01-25T03:20:34.402Z,5.43
2019-01-25T03:23:01.258Z,4.80
2019-01-25T03:25:29.070Z,4.90
2019-01-25T03:27:55.707Z,4.90
2019-01-25T03:30:24.445Z,4.83
2019-01-25T03:32:51.290Z,4.33
2019-01-25T03:35:21.055Z,5.40
2019-01-25T03:37:48.632Z,4.80
2019-01-25T03:40:20.142Z,5.10
2019-01-25T03:42:46.727Z,4.67
2019-01-25T03:45:14.353Z,4.67
2019-01-25T03:47:41.069Z,5.50
2019-01-25T03:50:13.419Z,5.10
2019-01-25T03:52:39.997Z,4.97
2019-01-25T03:55:10.611Z,4.77
2019-01-25T03:57:37.162Z,4.20
2019-01-25T04:00:09.544Z,5.17
2019-01-25T04:02:36.090Z,4.43
2019-01-25T04:05:08.255Z,4.83
2019-01-25T04:07:35.469Z,5.30
2019-01-25T04:10:06.424Z,5.17
2019-01-25T04:12:33.367Z,4.90
2019-01-25T04:15:00.325Z,5.10
2019-01-25T04:17:27.615Z,4.03
2019-01-25T04:19:54.685Z,4.90
2019-01-25T04:22:21.768Z,3.70
2019-01-25T04:24:48.965Z,5.23
2019-01-25T04:27:16.591Z,4.27
2019-01-25T04:29:44.181Z,4.50
2019-01-25T04:32:11.812Z,5.20
2019-01-25T04:34:39.236Z,4.87
2019-01-25T04:37:06.823Z,4.30
2019-01-25T04:39:34.499Z,4.43
2019-01-25T04:42:02.095Z,4.73
2019-01-25T04:44:29.596Z,4.77
2019-01-25T04:46:56.674Z,5.53
2019-01-25T04:49:24.165Z,4.60
2019-01-25T04:51:51.756Z,4.77
2019-01-25T04:54:18.852Z,4.20
2019-01-25T04:56:45.532Z,4.30
2019-01-25T04:59:12.134Z,4.47
2019-01-25T05:01:38.683Z,4.43
2019-01-25T05:04:05.251Z,3.67
2019-01-25T05:06:32.236Z,4.73
2019-01-25T05:08:58.843Z,3.83
2019-01-25T05:11:26.258Z,5.03
2019-01-25T05:13:53.582Z,4.30
2019-01-25T05:16:20.733Z,4.63
2019-01-25T05:18:47.993Z,4.37
2019-01-25T05:21:18.626Z,4.50
2019-01-25T05:23:45.703Z,4.67
2019-01-25T05:26:14.995Z,4.93
2019-01-25T05:28:41.935Z,4.10
2019-01-25T05:31:09.226Z,4.13
2019-01-25T05:33:36.113Z,4.83
2019-01-25T05:36:03.583Z,4.60
2019-01-25T05:38:30.419Z,4.33
2019-01-25T05:40:57.823Z,4.07
2019-01-25T05:43:24.751Z,4.27
2019-01-25T05:45:51.708Z,4.00
2019-01-25T05:48:18.415Z,4.13
2019-01-25T05:50:45.066Z,4.20
2019-01-25T05:53:12.798Z,4.23
2019-01-25T05:55:39.443Z,3.80
2019-01-25T05:58:08.201Z,4.80
2019-01-25T06:00:36.826Z,4.30
2019-01-25T06:03:06.778Z,4.17
2019-01-25T06:05:33.401Z,5.00
2019-01-25T06:08:00.073Z,4.80
2019-01-25T06:10:31.158Z,4.47
2019-01-25T06:12:57.851Z,4.43
2019-01-25T06:15:27.387Z,4.50
2019-01-25T06:17:54.507Z,4.63
2019-01-25T06:20:21.482Z,5.57
2019-01-25T06:22:48.977Z,5.30
2019-01-25T06:25:15.601Z,4.50
2019-01-25T06:27:42.583Z,4.73
2019-01-25T06:30:12.870Z,4.63
2019-01-25T06:32:41.842Z,4.73
2019-01-25T06:35:10.496Z,5.13
2019-01-25T06:37:37.198Z,4.47
2019-01-25T06:40:08.773Z,4.70
2019-01-25T06:42:35.977Z,4.83
2019-01-25T06:45:06.492Z,4.60
2019-01-25T06:47:33.120Z,4.10
2019-01-25T06:49:59.752Z,4.93
2019-01-25T06:52:26.465Z,4.30
2019-01-25T06:54:53.285Z,4.10
2019-01-25T06:57:22.117Z,4.23
2019-01-25T06:59:50.020Z,4.50
2019-01-25T07:02:16.832Z,4.43
2019-01-25T07:04:43.500Z,5.00
2019-01-25T07:07:12.121Z,4.80
2019-01-25T07:09:39.789Z,4.17
2019-01-25T07:12:06.422Z,4.30
2019-01-25T07:14:33.059Z,5.00
2019-01-25T07:16:59.813Z,4.93
2019-01-25T07:19:26.445Z,3.80
2019-01-25T07:21:53.167Z,5.03
2019-01-25T07:24:20.940Z,5.27
2019-01-25T07:26:47.575Z,4.37
2019-01-25T07:29:14.191Z,5.07
2019-01-25T07:31:40.824Z,5.27
2019-01-25T07:34:08.536Z,4.87
2019-01-25T07:36:37.382Z,4.63
2019-01-25T07:39:09.783Z,4.67
2019-01-25T07:41:36.454Z,4.60
2019-01-25T07:44:03.052Z,4.00
2019-01-25T07:46:29.779Z,4.50
2019-01-25T07:48:56.653Z,4.53
2019-01-25T07:51:23.365Z,5.03
2019-01-25T07:53:50.032Z,4.30
2019-01-25T07:56:16.713Z,4.93
2019-01-25T07:58:43.525Z,3.00
2019-01-25T08:01:10.213Z,4.63
2019-01-25T08:03:37.461Z,4.70
2019-01-25T08:06:04.199Z,5.33
2019-01-25T08:08:30.839Z,4.77
2019-01-25T08:10:57.619Z,5.03
2019-01-25T08:13:24.219Z,4.80
2019-01-25T08:15:50.893Z,4.23
2019-01-25T08:18:17.679Z,4.90
2019-01-25T08:20:44.311Z,4.77
2019-01-25T08:23:10.921Z,4.30
2019-01-25T08:25:37.581Z,4.03
2019-01-25T08:28:04.242Z,4.93
2019-01-25T08:30:31.017Z,4.80
2019-01-25T08:32:57.600Z,4.10
2019-01-25T08:35:24.196Z,4.90
2019-01-25T08:37:51.032Z,5.23
2019-01-25T08:40:17.804Z,4.80
2019-01-25T08:42:44.459Z,4.07
2019-01-25T08:45:14.655Z,5.10
2019-01-25T08:47:44.517Z,5.27
2019-01-25T08:50:16.753Z,4.47
2019-01-25T08:52:43.554Z,5.50
2019-01-25T08:55:10.283Z,4.83
2019-01-25T08:57:36.901Z,5.20
2019-01-25T09:00:09.349Z,5.63
2019-01-25T09:02:36.052Z,5.60
2019-01-25T09:05:06.420Z,5.47
2019-01-25T09:07:33.066Z,6.13
2019-01-25T09:10:09.247Z,5.67
2019-01-25T09:12:35.928Z,5.47
2019-01-25T09:15:07.493Z,5.33
2019-01-25T09:17:34.152Z,5.27
2019-01-25T09:20:00.805Z,5.57
2019-01-25T09:22:27.563Z,5.43
2019-01-25T09:24:54.155Z,6.17
2019-01-25T09:27:20.826Z,5.50
2019-01-25T09:29:47.483Z,5.27
2019-01-25T09:32:15.190Z,5.27
2019-01-25T09:34:41.848Z,5.50
2019-01-25T09:37:09.663Z,5.33
2019-01-25T09:39:36.212Z,5.73
2019-01-25T09:42:02.989Z,5.87
2019-01-25T09:44:29.819Z,5.73
2019-01-25T09:46:56.445Z,5.73
2019-01-25T09:49:25.700Z,4.90
2019-01-25T09:51:52.405Z,5.07
2019-01-25T09:54:19.147Z,4.67
2019-01-25T09:56:46.179Z,5.43
2019-01-25T09:59:12.842Z,5.63
2019-01-25T10:01:39.502Z,6.40
2019-01-25T10:04:06.125Z,6.60
2019-01-25T10:06:32.921Z,6.27
2019-01-25T10:08:59.499Z,5.63
2019-01-25T10:11:26.220Z,6.23
2019-01-25T10:13:52.925Z,6.23
2019-01-25T10:16:19.560Z,5.73
2019-01-25T10:18:46.222Z,3.97
2019-01-25T10:21:13.531Z,5.53
2019-01-25T10:23:40.706Z,5.87
2019-01-25T10:26:08.012Z,5.60
2019-01-25T10:28:34.876Z,6.47
2019-01-25T10:31:01.631Z,6.30
2019-01-25T10:33:28.442Z,6.20
2019-01-25T10:35:56.212Z,6.53
2019-01-25T10:39:19.619Z,6.50
2019-01-25T10:41:46.353Z,6.07
2019-01-25T10:44:12.928Z,6.17
2019-01-25T10:46:39.738Z,5.83
2019-01-25T10:49:06.366Z,6.37
2019-01-25T10:51:33.027Z,6.40
2019-01-25T10:53:59.921Z,5.47
2019-01-25T10:56:26.757Z,6.43
2019-01-25T10:58:53.399Z,6.90
2019-01-25T11:01:20.005Z,7.43
2019-01-25T11:03:46.988Z,6.20
2019-01-25T11:06:13.691Z,7.90
2019-01-25T11:08:40.441Z,6.23
2019-01-25T11:11:07.150Z,7.43
2019-01-25T11:13:33.926Z,6.23
2019-01-25T11:16:00.798Z,6.40
2019-01-25T11:18:27.762Z,6.43
2019-01-25T11:20:54.460Z,7.30
2019-01-25T11:23:21.107Z,7.17
2019-01-25T11:25:47.731Z,6.63
2019-01-25T11:28:14.402Z,6.37
2019-01-25T11:30:41.083Z,5.70
2019-01-25T11:33:07.741Z,6.37
2019-01-25T11:35:34.426Z,6.60
2019-01-25T11:38:01.108Z,7.03
2019-01-25T11:40:32.728Z,6.90
2019-01-25T11:42:59.383Z,6.93
2019-01-25T11:45:25.932Z,6.77
2019-01-25T11:47:52.546Z,5.77
2019-01-25T11:50:20.274Z,7.13
2019-01-25T11:52:47.267Z,7.27
2019-01-25T11:55:16.362Z,6.90
2019-01-25T11:57:43.165Z,7.53
2019-01-25T12:00:16.084Z,7.20
2019-01-25T12:02:42.814Z,6.90
2019-01-25T12:05:13.638Z,7.07
2019-01-25T12:07:40.294Z,7.63
2019-01-25T12:10:12.112Z,7.03
2019-01-25T12:12:38.784Z,6.63
2019-01-25T12:17:27.012Z,7.90
2019-01-25T12:19:53.739Z,8.33
2019-01-25T12:22:20.394Z,7.40
2019-01-25T12:24:47.038Z,7.43
2019-01-25T12:27:13.625Z,9.07
2019-01-25T12:29:41.312Z,8.97
2019-01-25T12:32:07.989Z,9.10
2019-01-25T12:34:34.648Z,8.50
2019-01-25T12:37:04.710Z,9.73
2019-01-25T12:39:30.142Z,8.30
2019-01-25T12:41:56.800Z,8.63
2019-01-25T12:44:23.388Z,7.97
2019-01-25T12:46:49.956Z,8.50
2019-01-25T12:49:16.562Z,7.07
2019-01-25T12:51:43.610Z,8.33
2019-01-25T12:54:10.344Z,8.23
2019-01-25T12:56:37.106Z,7.23
2019-01-25T12:59:03.704Z,8.70
2019-01-25T13:01:34.942Z,8.67
2019-01-25T13:03:59.018Z,8.73
2019-01-25T13:06:25.663Z,8.57
2019-01-25T13:08:52.325Z,8.20
2019-01-25T13:11:19.089Z,8.47
2019-01-25T13:13:45.851Z,9.03
2019-01-25T13:16:15.538Z,8.53
2019-01-25T13:18:42.312Z,8.27
2019-01-25T13:21:08.971Z,8.77
2019-01-25T13:23:35.581Z,7.63
2019-01-25T13:26:02.281Z,9.73
2019-01-25T13:28:29.358Z,9.53
2019-01-25T13:30:56.242Z,9.07
2019-01-25T13:33:23.006Z,9.47
2019-01-25T13:35:49.753Z,10.40
2019-01-25T13:38:16.526Z,9.53
2019-01-25T13:40:43.398Z,9.70
2019-01-25T13:43:10.193Z,10.83
2019-01-25T13:45:36.940Z,9.50
2019-01-25T13:48:03.818Z,9.80
2019-01-25T13:50:30.568Z,9.10
2019-01-25T13:52:57.146Z,9.23
2019-01-25T13:55:24.112Z,10.20
2019-01-25T13:57:50.701Z,10.53
2019-01-25T14:00:23.035Z,9.90
2019-01-25T14:02:51.058Z,10.67
2019-01-25T14:05:17.735Z,11.13
2019-01-25T14:07:44.313Z,12.53
2019-01-25T14:10:16.710Z,13.37
2019-01-25T14:12:43.451Z,14.53
2019-01-25T14:15:10.204Z,14.40
2019-01-25T14:17:36.987Z,15.40
2019-01-25T14:20:09.317Z,16.13
2019-01-25T14:22:35.931Z,17.50
2019-01-25T14:25:04.876Z,15.97
2019-01-25T14:27:31.506Z,17.70
2019-01-25T14:29:58.133Z,16.97
2019-01-25T14:32:24.992Z,16.87
2019-01-25T14:34:51.595Z,18.17
2019-01-25T14:37:18.178Z,17.47
2019-01-25T14:39:44.811Z,14.67
2019-01-25T14:42:11.466Z,15.63
2019-01-25T14:44:38.067Z,16.73
2019-01-25T14:47:04.981Z,16.80
2019-01-25T14:49:31.664Z,16.50
2019-01-25T14:51:58.322Z,15.27
2019-01-25T14:54:24.928Z,16.17
2019-01-25T14:56:51.763Z,16.77
2019-01-25T14:59:18.355Z,15.90
2019-01-25T15:01:45.016Z,16.53
2019-01-25T15:04:11.632Z,17.97
2019-01-25T15:07:34.752Z,17.60
2019-01-25T15:10:05.502Z,17.87
2019-01-25T15:12:34.212Z,18.50
2019-01-25T15:15:00.866Z,20.80
2019-01-25T15:17:28.761Z,19.30
2019-01-25T15:19:55.383Z,24.20
2019-01-25T15:22:21.989Z,21.83
2019-01-25T15:24:48.554Z,23.63
2019-01-25T15:27:15.289Z,23.37
2019-01-25T15:29:42.050Z,25.03
2019-01-25T15:32:08.688Z,24.77
2019-01-25T15:34:35.295Z,24.33
2019-01-25T15:37:03.418Z,24.47
2019-01-25T15:39:30.299Z,24.33
2019-01-25T15:41:56.968Z,25.73
2019-01-25T15:44:23.576Z,25.83
2019-01-25T15:50:50.380Z,26.50
2019-01-25T15:53:17.031Z,23.87
2019-01-25T15:55:43.873Z,24.83
2019-01-25T15:58:10.808Z,24.67
2019-01-25T16:00:37.551Z,35.60
2019-01-25T16:03:04.470Z,37.97
2019-01-25T16:05:31.098Z,45.93
2019-01-25T16:07:57.762Z,47.33
2019-01-25T16:10:24.507Z,45.60
2019-01-25T16:12:51.821Z,41.10
2019-01-25T16:15:25.721Z,36.03
2019-01-25T16:17:52.967Z,26.30
2019-01-25T16:20:19.726Z,32.57
2019-01-25T16:22:48.907Z,25.90
2019-01-25T16:25:19.505Z,25.47
2019-01-25T16:27:46.214Z,27.30
2019-01-25T16:30:17.833Z,28.70
2019-01-25T16:32:44.701Z,27.30
2019-01-25T16:35:11.587Z,24.57
2019-01-25T16:37:38.403Z,23.87
2019-01-25T16:40:10.765Z,23.13
2019-01-25T16:42:37.682Z,23.90
2019-01-25T16:45:10.011Z,26.03
2019-01-25T16:47:36.646Z,24.53
2019-01-25T16:50:06.253Z,25.40
2019-01-25T16:52:32.942Z,30.63
2019-01-25T16:55:00.261Z,28.83
2019-01-25T16:57:28.453Z,31.37
2019-01-25T16:59:55.126Z,27.50
2019-01-25T17:02:21.804Z,28.40
2019-01-25T17:04:48.470Z,27.10
2019-01-25T17:07:15.124Z,24.93
2019-01-25T17:09:41.759Z,25.17
2019-01-25T17:12:08.365Z,25.93
2019-01-25T17:14:35.077Z,24.57
2019-01-25T17:17:01.712Z,31.57
2019-01-25T17:19:28.564Z,26.93
2019-01-25T17:21:55.258Z,26.37
2019-01-25T17:24:21.939Z,26.73
2019-01-25T17:26:48.529Z,27.40
2019-01-25T17:29:15.174Z,29.27
2019-01-25T17:31:41.872Z,28.00
2019-01-25T17:34:08.600Z,32.97
2019-01-25T17:36:35.179Z,33.83
2019-01-25T17:39:03.993Z,30.27
2019-01-25T17:41:31.737Z,27.03
2019-01-25T17:43:58.518Z,27.80
2019-01-25T17:46:25.557Z,26.83
2019-01-25T17:48:52.577Z,31.63
2019-01-25T17:51:19.493Z,30.53
2019-01-25T17:53:46.101Z,29.23
2019-01-25T17:56:12.795Z,30.80
2019-01-25T17:58:39.548Z,31.13
2019-01-25T18:01:06.217Z,31.17
2019-01-25T18:03:32.977Z,30.03
2019-01-25T18:05:59.733Z,31.47
2019-01-25T18:08:26.542Z,30.60
2019-01-25T18:10:53.811Z,30.53
2019-01-25T18:13:20.922Z,33.07
2019-01-25T18:15:48.013Z,31.60
2019-01-25T18:18:15.265Z,32.50
2019-01-25T18:20:42.599Z,31.07
2019-01-25T18:23:09.799Z,40.13
2019-01-25T18:25:41.739Z,34.37
2019-01-25T18:28:14.313Z,37.80
2019-01-25T18:30:47.152Z,37.53
2019-01-25T18:33:13.942Z,41.50
2019-01-25T18:35:40.665Z,43.03
2019-01-25T18:38:08.760Z,41.07
2019-01-25T18:40:35.596Z,39.90
2019-01-25T18:43:02.693Z,43.20
2019-01-25T18:45:29.654Z,41.33
2019-01-25T18:47:57.811Z,39.60
2019-01-25T18:50:24.586Z,35.33
2019-01-25T18:52:51.280Z,39.73
2019-01-25T18:55:22.258Z,40.63
2019-01-25T18:57:49.109Z,40.47
2019-01-25T19:00:19.054Z,42.33
2019-01-25T19:02:46.354Z,41.73
2019-01-25T19:05:12.972Z,36.07
2019-01-25T19:07:39.623Z,38.47
2019-01-25T19:10:12.105Z,35.57
2019-01-25T19:12:38.784Z,37.80
2019-01-25T19:15:11.228Z,36.37
2019-01-25T19:17:37.812Z,34.13
2019-01-25T19:20:09.445Z,34.77
2019-01-25T19:22:36.192Z,36.47
2019-01-25T19:25:07.252Z,36.53
2019-01-25T19:27:33.810Z,33.93
2019-01-25T19:30:00.453Z,33.77
2019-01-25T19:32:27.322Z,35.83
2019-01-25T19:34:53.967Z,34.23
2019-01-25T19:37:20.515Z,33.37
2019-01-25T19:39:47.211Z,30.73
2019-01-25T19:42:13.914Z,31.47
2019-01-25T19:44:40.547Z,40.10
2019-01-25T19:47:07.323Z,36.17
2019-01-25T19:49:34.038Z,35.00
2019-01-25T19:52:00.973Z,32.50
2019-01-25T19:54:27.798Z,36.27
2019-01-25T19:56:54.610Z,34.70
2019-01-25T19:59:21.418Z,36.67
2019-01-25T20:01:48.253Z,32.53
2019-01-25T20:04:14.910Z,33.53
2019-01-25T20:06:41.615Z,40.37
2019-01-25T20:09:08.536Z,36.37
2019-01-25T20:11:35.220Z,37.53
2019-01-25T20:14:01.995Z,40.60
2019-01-25T20:16:28.865Z,37.53
2019-01-25T20:18:55.467Z,33.43
2019-01-25T20:21:22.096Z,35.17
2019-01-25T20:23:48.647Z,35.03
2019-01-25T20:26:15.337Z,33.23
2019-01-25T20:28:41.894Z,35.80
2019-01-25T20:31:08.466Z,33.87
2019-01-25T20:33:35.181Z,35.80
2019-01-25T20:36:01.988Z,35.97
2019-01-25T20:38:28.619Z,36.23
2019-01-25T20:40:55.322Z,33.93
2019-01-25T20:43:21.942Z,34.00
2019-01-25T20:45:48.746Z,33.77
2019-01-25T20:48:15.530Z,36.20
2019-01-25T20:50:42.353Z,33.73
2019-01-25T20:53:12.249Z,36.03
2019-01-25T20:55:38.853Z,33.80
2019-01-25T20:58:05.614Z,45.40
2019-01-25T21:00:37.007Z,42.80
2019-01-25T21:03:06.503Z,36.57
2019-01-25T21:05:33.321Z,46.10
2019-01-25T21:07:59.884Z,41.30
2019-01-25T21:10:26.783Z,39.60
2019-01-25T21:12:53.486Z,39.60
2019-01-25T21:15:23.447Z,53.60
2019-01-25T21:17:50.154Z,42.97
2019-01-25T21:20:22.607Z,38.10
2019-01-25T21:22:49.202Z,38.33
2019-01-25T21:25:15.900Z,32.77
2019-01-25T21:27:42.706Z,34.13
2019-01-25T21:30:14.889Z,59.33
2019-01-25T21:32:41.542Z,35.63
2019-01-25T21:35:08.603Z,39.63
2019-01-25T21:37:35.385Z,42.83
2019-01-25T21:40:08.622Z,32.30
2019-01-25T21:42:34.053Z,34.90
2019-01-25T21:45:00.860Z,33.33
2019-01-25T21:47:27.677Z,31.80
2019-01-25T21:49:54.581Z,49.30
2019-01-25T21:52:21.471Z,39.30
2019-01-25T21:54:48.043Z,40.67
2019-01-25T21:57:14.652Z,49.47
2019-01-25T21:59:41.266Z,37.23
2019-01-25T22:02:07.861Z,48.87
2019-01-25T22:04:34.538Z,27.67
2019-01-25T22:07:01.176Z,28.53
2019-01-25T22:09:28.011Z,29.47
2019-01-25T22:11:54.592Z,64.20
2019-01-25T22:14:21.188Z,46.93
2019-01-25T22:16:49.699Z,51.93
2019-01-25T22:19:16.326Z,46.07
2019-01-25T22:21:43.014Z,44.60
2019-01-25T22:24:09.732Z,29.40
2019-01-25T22:26:36.355Z,29.50
2019-01-25T22:29:03.090Z,26.57
2019-01-25T22:31:29.805Z,29.17
2019-01-25T22:33:56.519Z,44.00
2019-01-25T22:36:23.135Z,30.03
2019-01-25T22:38:49.889Z,46.27
2019-01-25T22:41:16.512Z,37.20
2019-01-25T22:43:43.186Z,49.27
2019-01-25T22:46:10.007Z,30.23
2019-01-25T22:48:36.631Z,29.80
2019-01-25T22:51:03.338Z,36.40
2019-01-25T22:53:30.112Z,34.00
2019-01-25T22:55:56.742Z,36.87
2019-01-25T22:58:23.459Z,33.93
2019-01-25T23:00:57.711Z,39.40
2019-01-25T23:03:30.222Z,117.07
2019-01-25T23:06:00.687Z,44.53
2019-01-25T23:08:27.475Z,69.40
2019-01-25T23:10:54.118Z,37.17
2019-01-25T23:13:20.856Z,42.53
2019-01-25T23:15:47.440Z,33.77
2019-01-25T23:18:14.116Z,69.07
2019-01-25T23:20:40.740Z,40.03
2019-01-25T23:23:07.416Z,49.93
2019-01-25T23:25:34.029Z,50.40
2019-01-25T23:28:00.989Z,37.23
2019-01-25T23:30:27.648Z,35.27
2019-01-25T23:32:54.296Z,41.03
2019-01-25T23:35:20.991Z,32.77
2019-01-25T23:37:47.556Z,32.97
2019-01-25T23:40:14.155Z,34.27
2019-01-25T23:42:40.928Z,36.77
2019-01-25T23:45:07.870Z,29.87
2019-01-25T23:47:34.466Z,33.67
2019-01-25T23:50:01.234Z,34.33
2019-01-25T23:52:28.091Z,36.20
2019-01-25T23:54:54.666Z,33.67
2019-01-25T23:58:17.695Z,32.77
